sensor_id;sensor_type;location;lat;lon;timestamp;P1;durP1;ratioP1;P2;durP2;ratioP2
57667;SDS011;43499;52.366;12.912;2024-01-11T00:00:21;50.00;;;19.02;;
57667;SDS011;43499;52.366;12.912;2024-01-11T00:01:22;47.83;;;21.67;;
57667;SDS011;43499;52.366;12.912;2024-01-11T00:02:23;45.85;;;19.15;;
57667;SDS011;43499;52.366;12.912;2024-01-11T00:03:25;44.92;;;18.73;;
57667;SDS011;43499;52.366;12.912;2024-01-11T00:04:26;40.80;;;19.23;;
57667;SDS011;43499;52.366;12.912;2024-01-11T00:05:27;50.78;;;18.73;;
57667;SDS011;43499;52.366;12.912;2024-01-11T00:06:28;41.38;;;16.90;;
57667;SDS011;43499;52.366;12.912;2024-01-11T00:07:29;39.58;;;20.27;;
57667;SDS011;43499;52.366;12.912;2024-01-11T00:08:30;50.47;;;20.02;;
57667;SDS011;43499;52.366;12.912;2024-01-11T00:09:31;45.67;;;19.50;;
57667;SDS011;43499;52.366;12.912;2024-01-11T00:10:32;38.13;;;17.98;;
57667;SDS011;43499;52.366;12.912;2024-01-11T00:11:33;40.33;;;18.52;;
57667;SDS011;43499;52.366;12.912;2024-01-11T00:12:34;46.17;;;16.40;;
57667;SDS011;43499;52.366;12.912;2024-01-11T00:13:35;46.25;;;18.15;;
57667;SDS011;43499;52.366;12.912;2024-01-11T00:14:36;44.17;;;18.55;;
57667;SDS011;43499;52.366;12.912;2024-01-11T00:15:37;51.88;;;18.73;;
57667;SDS011;43499;52.366;12.912;2024-01-11T00:16:38;46.58;;;18.42;;
57667;SDS011;43499;52.366;12.912;2024-01-11T00:17:39;51.03;;;19.77;;
57667;SDS011;43499;52.366;12.912;2024-01-11T00:18:41;48.58;;;20.27;;
57667;SDS011;43499;52.366;12.912;2024-01-11T00:19:42;49.83;;;18.67;;
57667;SDS011;43499;52.366;12.912;2024-01-11T00:20:43;47.17;;;18.58;;
57667;SDS011;43499;52.366;12.912;2024-01-11T00:21:44;42.40;;;17.75;;
57667;SDS011;43499;52.366;12.912;2024-01-11T00:22:45;48.63;;;16.60;;
57667;SDS011;43499;52.366;12.912;2024-01-11T00:23:46;46.60;;;19.85;;
57667;SDS011;43499;52.366;12.912;2024-01-11T00:24:47;47.55;;;19.40;;
57667;SDS011;43499;52.366;12.912;2024-01-11T00:25:48;40.08;;;15.65;;
57667;SDS011;43499;52.366;12.912;2024-01-11T00:26:50;37.20;;;17.80;;
57667;SDS011;43499;52.366;12.912;2024-01-11T00:27:51;42.75;;;19.40;;
57667;SDS011;43499;52.366;12.912;2024-01-11T00:28:52;43.20;;;16.77;;
57667;SDS011;43499;52.366;12.912;2024-01-11T00:29:53;41.00;;;16.92;;
57667;SDS011;43499;52.366;12.912;2024-01-11T00:30:55;35.05;;;16.83;;
57667;SDS011;43499;52.366;12.912;2024-01-11T00:31:56;44.33;;;18.48;;
57667;SDS011;43499;52.366;12.912;2024-01-11T00:32:57;41.30;;;16.75;;
57667;SDS011;43499;52.366;12.912;2024-01-11T00:33:58;39.22;;;14.88;;
57667;SDS011;43499;52.366;12.912;2024-01-11T00:34:59;41.33;;;16.85;;
57667;SDS011;43499;52.366;12.912;2024-01-11T00:36:00;38.25;;;16.42;;
57667;SDS011;43499;52.366;12.912;2024-01-11T00:37:01;38.42;;;16.52;;
57667;SDS011;43499;52.366;12.912;2024-01-11T00:38:03;42.25;;;15.60;;
57667;SDS011;43499;52.366;12.912;2024-01-11T00:39:04;38.80;;;17.77;;
57667;SDS011;43499;52.366;12.912;2024-01-11T00:40:05;45.95;;;17.50;;
57667;SDS011;43499;52.366;12.912;2024-01-11T00:41:06;38.60;;;16.88;;
57667;SDS011;43499;52.366;12.912;2024-01-11T00:42:07;36.20;;;16.77;;
57667;SDS011;43499;52.366;12.912;2024-01-11T00:43:08;37.03;;;17.02;;
57667;SDS011;43499;52.366;12.912;2024-01-11T00:44:09;33.30;;;14.18;;
57667;SDS011;43499;52.366;12.912;2024-01-11T00:45:10;34.47;;;15.82;;
57667;SDS011;43499;52.366;12.912;2024-01-11T00:46:11;37.60;;;14.85;;
57667;SDS011;43499;52.366;12.912;2024-01-11T00:47:13;41.30;;;15.93;;
57667;SDS011;43499;52.366;12.912;2024-01-11T00:48:14;30.88;;;13.52;;
57667;SDS011;43499;52.366;12.912;2024-01-11T00:49:15;32.28;;;13.45;;
57667;SDS011;43499;52.366;12.912;2024-01-11T00:50:16;35.28;;;14.05;;
57667;SDS011;43499;52.366;12.912;2024-01-11T00:51:17;33.92;;;14.48;;
57667;SDS011;43499;52.366;12.912;2024-01-11T00:52:18;37.42;;;13.20;;
57667;SDS011;43499;52.366;12.912;2024-01-11T00:53:19;40.38;;;15.48;;
57667;SDS011;43499;52.366;12.912;2024-01-11T00:54:20;35.78;;;14.65;;
57667;SDS011;43499;52.366;12.912;2024-01-11T00:55:21;36.42;;;13.93;;
57667;SDS011;43499;52.366;12.912;2024-01-11T00:56:22;34.28;;;14.95;;
57667;SDS011;43499;52.366;12.912;2024-01-11T00:57:23;32.50;;;13.85;;
57667;SDS011;43499;52.366;12.912;2024-01-11T00:58:24;40.50;;;15.00;;
57667;SDS011;43499;52.366;12.912;2024-01-11T00:59:25;38.85;;;15.52;;
57667;SDS011;43499;52.366;12.912;2024-01-11T01:00:26;37.25;;;14.73;;
57667;SDS011;43499;52.366;12.912;2024-01-11T01:01:27;46.72;;;15.50;;
57667;SDS011;43499;52.366;12.912;2024-01-11T01:02:29;47.08;;;16.63;;
57667;SDS011;43499;52.366;12.912;2024-01-11T01:03:30;46.60;;;17.60;;
57667;SDS011;43499;52.366;12.912;2024-01-11T01:04:31;42.90;;;15.25;;
57667;SDS011;43499;52.366;12.912;2024-01-11T01:05:32;38.58;;;15.55;;
57667;SDS011;43499;52.366;12.912;2024-01-11T01:06:33;39.00;;;15.48;;
57667;SDS011;43499;52.366;12.912;2024-01-11T01:07:34;39.50;;;16.13;;
57667;SDS011;43499;52.366;12.912;2024-01-11T01:08:35;45.22;;;16.45;;
57667;SDS011;43499;52.366;12.912;2024-01-11T01:09:36;38.08;;;15.88;;
57667;SDS011;43499;52.366;12.912;2024-01-11T01:10:37;32.05;;;14.00;;
57667;SDS011;43499;52.366;12.912;2024-01-11T01:11:38;32.42;;;12.90;;
57667;SDS011;43499;52.366;12.912;2024-01-11T01:12:39;29.77;;;11.68;;
57667;SDS011;43499;52.366;12.912;2024-01-11T01:13:40;33.75;;;14.85;;
57667;SDS011;43499;52.366;12.912;2024-01-11T01:14:41;29.40;;;12.88;;
57667;SDS011;43499;52.366;12.912;2024-01-11T01:15:42;29.15;;;12.80;;
57667;SDS011;43499;52.366;12.912;2024-01-11T01:16:43;33.88;;;13.05;;
57667;SDS011;43499;52.366;12.912;2024-01-11T01:17:44;28.45;;;13.55;;
57667;SDS011;43499;52.366;12.912;2024-01-11T01:18:46;28.85;;;13.20;;
57667;SDS011;43499;52.366;12.912;2024-01-11T01:19:47;31.67;;;12.88;;
57667;SDS011;43499;52.366;12.912;2024-01-11T01:20:48;29.30;;;12.50;;
57667;SDS011;43499;52.366;12.912;2024-01-11T01:21:49;31.77;;;14.40;;
57667;SDS011;43499;52.366;12.912;2024-01-11T01:22:50;34.22;;;12.73;;
57667;SDS011;43499;52.366;12.912;2024-01-11T01:23:51;32.40;;;13.27;;
57667;SDS011;43499;52.366;12.912;2024-01-11T01:24:52;32.83;;;13.68;;
57667;SDS011;43499;52.366;12.912;2024-01-11T01:25:53;35.58;;;14.07;;
57667;SDS011;43499;52.366;12.912;2024-01-11T01:26:54;32.75;;;13.68;;
57667;SDS011;43499;52.366;12.912;2024-01-11T01:27:55;35.80;;;13.48;;
57667;SDS011;43499;52.366;12.912;2024-01-11T01:28:56;34.13;;;12.13;;
57667;SDS011;43499;52.366;12.912;2024-01-11T01:29:57;30.45;;;15.15;;
57667;SDS011;43499;52.366;12.912;2024-01-11T01:30:58;35.50;;;14.98;;
57667;SDS011;43499;52.366;12.912;2024-01-11T01:31:59;28.30;;;14.10;;
57667;SDS011;43499;52.366;12.912;2024-01-11T01:33:00;30.90;;;12.45;;
57667;SDS011;43499;52.366;12.912;2024-01-11T01:34:01;31.63;;;13.50;;
57667;SDS011;43499;52.366;12.912;2024-01-11T01:35:03;29.25;;;12.10;;
57667;SDS011;43499;52.366;12.912;2024-01-11T01:36:07;31.17;;;13.27;;
57667;SDS011;43499;52.366;12.912;2024-01-11T01:37:09;24.67;;;11.82;;
57667;SDS011;43499;52.366;12.912;2024-01-11T01:38:10;28.80;;;12.02;;
57667;SDS011;43499;52.366;12.912;2024-01-11T01:39:11;31.98;;;11.50;;
57667;SDS011;43499;52.366;12.912;2024-01-11T01:40:12;29.63;;;11.93;;
57667;SDS011;43499;52.366;12.912;2024-01-11T01:41:13;26.98;;;11.35;;
57667;SDS011;43499;52.366;12.912;2024-01-11T01:42:14;29.83;;;11.13;;
57667;SDS011;43499;52.366;12.912;2024-01-11T01:43:15;32.58;;;12.32;;
57667;SDS011;43499;52.366;12.912;2024-01-11T01:44:16;36.33;;;13.75;;
57667;SDS011;43499;52.366;12.912;2024-01-11T01:45:17;28.02;;;13.07;;
57667;SDS011;43499;52.366;12.912;2024-01-11T01:46:19;38.08;;;15.52;;
57667;SDS011;43499;52.366;12.912;2024-01-11T01:47:24;30.05;;;14.85;;
57667;SDS011;43499;52.366;12.912;2024-01-11T01:49:27;30.02;;;10.75;;
57667;SDS011;43499;52.366;12.912;2024-01-11T01:50:28;31.33;;;13.02;;
57667;SDS011;43499;52.366;12.912;2024-01-11T01:51:30;27.83;;;12.70;;
57667;SDS011;43499;52.366;12.912;2024-01-11T01:52:33;33.00;;;14.50;;
57667;SDS011;43499;52.366;12.912;2024-01-11T01:53:35;30.15;;;13.60;;
57667;SDS011;43499;52.366;12.912;2024-01-11T01:54:37;32.22;;;13.10;;
57667;SDS011;43499;52.366;12.912;2024-01-11T01:55:38;30.15;;;14.10;;
57667;SDS011;43499;52.366;12.912;2024-01-11T01:56:39;31.00;;;13.13;;
57667;SDS011;43499;52.366;12.912;2024-01-11T01:57:40;41.78;;;15.75;;
57667;SDS011;43499;52.366;12.912;2024-01-11T01:58:44;26.58;;;13.02;;
57667;SDS011;43499;52.366;12.912;2024-01-11T02:00:50;28.95;;;11.48;;
57667;SDS011;43499;52.366;12.912;2024-01-11T02:01:52;29.90;;;11.32;;
57667;SDS011;43499;52.366;12.912;2024-01-11T02:02:54;33.47;;;13.60;;
57667;SDS011;43499;52.366;12.912;2024-01-11T02:03:56;33.97;;;14.00;;
57667;SDS011;43499;52.366;12.912;2024-01-11T02:04:58;36.33;;;15.02;;
57667;SDS011;43499;52.366;12.912;2024-01-11T02:05:59;37.97;;;14.00;;
57667;SDS011;43499;52.366;12.912;2024-01-11T02:07:01;34.88;;;15.48;;
57667;SDS011;43499;52.366;12.912;2024-01-11T02:08:03;41.75;;;17.20;;
57667;SDS011;43499;52.366;12.912;2024-01-11T02:09:09;35.47;;;14.93;;
57667;SDS011;43499;52.366;12.912;2024-01-11T02:10:11;37.13;;;13.95;;
57667;SDS011;43499;52.366;12.912;2024-01-11T02:11:13;41.88;;;15.77;;
57667;SDS011;43499;52.366;12.912;2024-01-11T02:12:14;41.10;;;15.27;;
57667;SDS011;43499;52.366;12.912;2024-01-11T02:13:16;44.53;;;17.30;;
57667;SDS011;43499;52.366;12.912;2024-01-11T02:14:17;52.13;;;17.25;;
57667;SDS011;43499;52.366;12.912;2024-01-11T02:15:18;43.90;;;18.77;;
57667;SDS011;43499;52.366;12.912;2024-01-11T02:16:19;41.38;;;17.02;;
57667;SDS011;43499;52.366;12.912;2024-01-11T02:17:20;37.80;;;14.68;;
57667;SDS011;43499;52.366;12.912;2024-01-11T02:19:23;34.80;;;12.23;;
57667;SDS011;43499;52.366;12.912;2024-01-11T02:20:24;35.65;;;14.25;;
57667;SDS011;43499;52.366;12.912;2024-01-11T02:21:25;36.83;;;15.40;;
57667;SDS011;43499;52.366;12.912;2024-01-11T02:22:32;40.65;;;15.90;;
57667;SDS011;43499;52.366;12.912;2024-01-11T02:23:36;47.25;;;18.70;;
57667;SDS011;43499;52.366;12.912;2024-01-11T02:24:46;41.22;;;13.85;;
57667;SDS011;43499;52.366;12.912;2024-01-11T02:25:47;38.97;;;16.55;;
57667;SDS011;43499;52.366;12.912;2024-01-11T02:26:58;36.67;;;14.75;;
57667;SDS011;43499;52.366;12.912;2024-01-11T02:28:03;30.95;;;12.95;;
57667;SDS011;43499;52.366;12.912;2024-01-11T02:29:04;30.00;;;13.60;;
57667;SDS011;43499;52.366;12.912;2024-01-11T02:30:05;38.47;;;14.00;;
57667;SDS011;43499;52.366;12.912;2024-01-11T02:32:07;30.92;;;12.57;;
57667;SDS011;43499;52.366;12.912;2024-01-11T02:33:08;34.35;;;10.13;;
57667;SDS011;43499;52.366;12.912;2024-01-11T02:34:10;36.85;;;12.80;;
57667;SDS011;43499;52.366;12.912;2024-01-11T02:35:12;36.10;;;13.23;;
57667;SDS011;43499;52.366;12.912;2024-01-11T02:36:13;34.95;;;15.13;;
57667;SDS011;43499;52.366;12.912;2024-01-11T02:37:15;31.98;;;13.00;;
57667;SDS011;43499;52.366;12.912;2024-01-11T02:38:16;33.38;;;15.35;;
57667;SDS011;43499;52.366;12.912;2024-01-11T02:39:17;28.95;;;13.95;;
57667;SDS011;43499;52.366;12.912;2024-01-11T02:40:20;30.02;;;14.00;;
57667;SDS011;43499;52.366;12.912;2024-01-11T02:41:22;35.45;;;14.73;;
57667;SDS011;43499;52.366;12.912;2024-01-11T02:42:24;37.83;;;14.80;;
57667;SDS011;43499;52.366;12.912;2024-01-11T02:43:25;31.67;;;13.70;;
57667;SDS011;43499;52.366;12.912;2024-01-11T02:44:26;35.28;;;14.45;;
57667;SDS011;43499;52.366;12.912;2024-01-11T02:45:27;36.13;;;13.00;;
57667;SDS011;43499;52.366;12.912;2024-01-11T02:46:29;31.08;;;14.95;;
57667;SDS011;43499;52.366;12.912;2024-01-11T02:47:31;31.13;;;15.10;;
57667;SDS011;43499;52.366;12.912;2024-01-11T02:48:32;36.42;;;14.35;;
57667;SDS011;43499;52.366;12.912;2024-01-11T02:49:33;36.90;;;13.90;;
57667;SDS011;43499;52.366;12.912;2024-01-11T02:50:34;32.08;;;13.98;;
57667;SDS011;43499;52.366;12.912;2024-01-11T02:51:35;31.92;;;13.98;;
57667;SDS011;43499;52.366;12.912;2024-01-11T02:52:37;29.02;;;12.02;;
57667;SDS011;43499;52.366;12.912;2024-01-11T02:53:38;27.52;;;11.52;;
57667;SDS011;43499;52.366;12.912;2024-01-11T02:54:39;25.85;;;10.40;;
57667;SDS011;43499;52.366;12.912;2024-01-11T02:55:40;22.30;;;12.20;;
57667;SDS011;43499;52.366;12.912;2024-01-11T02:56:41;19.17;;;9.50;;
57667;SDS011;43499;52.366;12.912;2024-01-11T02:57:42;26.88;;;10.75;;
57667;SDS011;43499;52.366;12.912;2024-01-11T02:58:44;25.58;;;11.23;;
57667;SDS011;43499;52.366;12.912;2024-01-11T02:59:45;31.45;;;12.40;;
57667;SDS011;43499;52.366;12.912;2024-01-11T03:00:46;27.35;;;11.82;;
57667;SDS011;43499;52.366;12.912;2024-01-11T03:01:47;30.17;;;12.05;;
57667;SDS011;43499;52.366;12.912;2024-01-11T03:02:48;25.38;;;10.52;;
57667;SDS011;43499;52.366;12.912;2024-01-11T03:03:49;28.13;;;11.32;;
57667;SDS011;43499;52.366;12.912;2024-01-11T03:04:50;20.50;;;8.50;;
57667;SDS011;43499;52.366;12.912;2024-01-11T03:05:51;18.85;;;8.43;;
57667;SDS011;43499;52.366;12.912;2024-01-11T03:06:52;24.40;;;9.70;;
57667;SDS011;43499;52.366;12.912;2024-01-11T03:07:53;17.90;;;8.00;;
57667;SDS011;43499;52.366;12.912;2024-01-11T03:08:55;14.23;;;7.35;;
57667;SDS011;43499;52.366;12.912;2024-01-11T03:09:56;18.20;;;7.15;;
57667;SDS011;43499;52.366;12.912;2024-01-11T03:10:57;18.67;;;6.68;;
57667;SDS011;43499;52.366;12.912;2024-01-11T03:11:58;18.83;;;7.95;;
57667;SDS011;43499;52.366;12.912;2024-01-11T03:12:59;21.45;;;6.70;;
57667;SDS011;43499;52.366;12.912;2024-01-11T03:14:00;12.77;;;6.03;;
57667;SDS011;43499;52.366;12.912;2024-01-11T03:16:04;14.23;;;5.65;;
57667;SDS011;43499;52.366;12.912;2024-01-11T03:17:05;13.00;;;5.45;;
57667;SDS011;43499;52.366;12.912;2024-01-11T03:18:07;14.40;;;6.13;;
57667;SDS011;43499;52.366;12.912;2024-01-11T03:19:08;13.23;;;6.28;;
57667;SDS011;43499;52.366;12.912;2024-01-11T03:20:09;12.77;;;5.70;;
57667;SDS011;43499;52.366;12.912;2024-01-11T03:21:10;11.18;;;5.28;;
57667;SDS011;43499;52.366;12.912;2024-01-11T03:22:11;12.00;;;5.60;;
57667;SDS011;43499;52.366;12.912;2024-01-11T03:23:13;14.68;;;6.13;;
57667;SDS011;43499;52.366;12.912;2024-01-11T03:24:14;11.25;;;5.38;;
57667;SDS011;43499;52.366;12.912;2024-01-11T03:25:15;14.75;;;5.07;;
57667;SDS011;43499;52.366;12.912;2024-01-11T03:26:16;14.80;;;5.72;;
57667;SDS011;43499;52.366;12.912;2024-01-11T03:27:18;12.43;;;5.38;;
57667;SDS011;43499;52.366;12.912;2024-01-11T03:28:19;13.32;;;5.18;;
57667;SDS011;43499;52.366;12.912;2024-01-11T03:29:20;16.27;;;6.50;;
57667;SDS011;43499;52.366;12.912;2024-01-11T03:30:21;10.35;;;4.78;;
57667;SDS011;43499;52.366;12.912;2024-01-11T03:31:22;10.80;;;4.75;;
57667;SDS011;43499;52.366;12.912;2024-01-11T03:32:23;10.65;;;3.67;;
57667;SDS011;43499;52.366;12.912;2024-01-11T03:33:24;8.80;;;3.55;;
57667;SDS011;43499;52.366;12.912;2024-01-11T03:34:25;4.10;;;2.35;;
57667;SDS011;43499;52.366;12.912;2024-01-11T03:35:26;5.32;;;3.50;;
57667;SDS011;43499;52.366;12.912;2024-01-11T03:36:27;6.82;;;3.88;;
57667;SDS011;43499;52.366;12.912;2024-01-11T03:37:28;10.25;;;3.53;;
57667;SDS011;43499;52.366;12.912;2024-01-11T03:38:29;7.18;;;3.55;;
57667;SDS011;43499;52.366;12.912;2024-01-11T03:39:30;5.72;;;3.30;;
57667;SDS011;43499;52.366;12.912;2024-01-11T03:40:31;8.85;;;4.63;;
57667;SDS011;43499;52.366;12.912;2024-01-11T03:41:32;5.50;;;3.60;;
57667;SDS011;43499;52.366;12.912;2024-01-11T03:42:33;6.72;;;3.92;;
57667;SDS011;43499;52.366;12.912;2024-01-11T03:43:35;7.30;;;3.25;;
57667;SDS011;43499;52.366;12.912;2024-01-11T03:45:37;8.00;;;3.83;;
57667;SDS011;43499;52.366;12.912;2024-01-11T03:46:38;12.57;;;4.55;;
57667;SDS011;43499;52.366;12.912;2024-01-11T03:47:39;7.95;;;3.63;;
57667;SDS011;43499;52.366;12.912;2024-01-11T03:48:40;10.27;;;3.55;;
57667;SDS011;43499;52.366;12.912;2024-01-11T03:49:41;6.38;;;3.75;;
57667;SDS011;43499;52.366;12.912;2024-01-11T03:50:42;9.80;;;3.78;;
57667;SDS011;43499;52.366;12.912;2024-01-11T03:51:43;7.28;;;3.45;;
57667;SDS011;43499;52.366;12.912;2024-01-11T03:52:45;8.10;;;3.45;;
57667;SDS011;43499;52.366;12.912;2024-01-11T03:53:46;7.70;;;2.95;;
57667;SDS011;43499;52.366;12.912;2024-01-11T03:54:47;8.38;;;3.20;;
57667;SDS011;43499;52.366;12.912;2024-01-11T03:55:48;9.38;;;3.45;;
57667;SDS011;43499;52.366;12.912;2024-01-11T03:56:49;8.63;;;3.05;;
57667;SDS011;43499;52.366;12.912;2024-01-11T03:57:51;6.20;;;3.30;;
57667;SDS011;43499;52.366;12.912;2024-01-11T03:58:52;5.57;;;2.92;;
57667;SDS011;43499;52.366;12.912;2024-01-11T03:59:53;5.68;;;2.53;;
57667;SDS011;43499;52.366;12.912;2024-01-11T04:00:54;7.13;;;3.17;;
57667;SDS011;43499;52.366;12.912;2024-01-11T04:01:55;6.38;;;3.60;;
57667;SDS011;43499;52.366;12.912;2024-01-11T04:02:58;7.80;;;4.07;;
57667;SDS011;43499;52.366;12.912;2024-01-11T04:03:59;8.85;;;3.67;;
57667;SDS011;43499;52.366;12.912;2024-01-11T04:05:00;9.27;;;3.55;;
57667;SDS011;43499;52.366;12.912;2024-01-11T04:06:01;8.70;;;3.67;;
57667;SDS011;43499;52.366;12.912;2024-01-11T04:07:02;7.53;;;3.00;;
57667;SDS011;43499;52.366;12.912;2024-01-11T04:08:04;8.48;;;3.63;;
57667;SDS011;43499;52.366;12.912;2024-01-11T04:09:06;7.57;;;3.13;;
57667;SDS011;43499;52.366;12.912;2024-01-11T04:10:07;9.73;;;3.42;;
57667;SDS011;43499;52.366;12.912;2024-01-11T04:11:10;8.35;;;3.83;;
57667;SDS011;43499;52.366;12.912;2024-01-11T04:12:11;4.50;;;2.67;;
57667;SDS011;43499;52.366;12.912;2024-01-11T04:13:12;6.72;;;3.75;;
57667;SDS011;43499;52.366;12.912;2024-01-11T04:14:13;8.88;;;3.78;;
57667;SDS011;43499;52.366;12.912;2024-01-11T04:15:14;10.38;;;4.15;;
57667;SDS011;43499;52.366;12.912;2024-01-11T04:16:15;7.95;;;3.15;;
57667;SDS011;43499;52.366;12.912;2024-01-11T04:17:16;9.43;;;3.47;;
57667;SDS011;43499;52.366;12.912;2024-01-11T04:18:17;7.95;;;4.25;;
57667;SDS011;43499;52.366;12.912;2024-01-11T04:19:18;7.43;;;4.13;;
57667;SDS011;43499;52.366;12.912;2024-01-11T04:20:19;6.68;;;3.13;;
57667;SDS011;43499;52.366;12.912;2024-01-11T04:21:23;10.55;;;4.10;;
57667;SDS011;43499;52.366;12.912;2024-01-11T04:22:29;6.15;;;3.22;;
57667;SDS011;43499;52.366;12.912;2024-01-11T04:23:30;9.68;;;4.50;;
57667;SDS011;43499;52.366;12.912;2024-01-11T04:24:31;8.82;;;3.85;;
57667;SDS011;43499;52.366;12.912;2024-01-11T04:25:32;6.90;;;3.17;;
57667;SDS011;43499;52.366;12.912;2024-01-11T04:26:33;8.68;;;4.30;;
57667;SDS011;43499;52.366;12.912;2024-01-11T04:27:34;9.82;;;3.40;;
57667;SDS011;43499;52.366;12.912;2024-01-11T04:28:36;6.38;;;3.92;;
57667;SDS011;43499;52.366;12.912;2024-01-11T04:29:37;5.13;;;2.95;;
57667;SDS011;43499;52.366;12.912;2024-01-11T04:30:38;8.25;;;4.60;;
57667;SDS011;43499;52.366;12.912;2024-01-11T04:31:39;6.72;;;3.63;;
57667;SDS011;43499;52.366;12.912;2024-01-11T04:32:40;9.48;;;4.07;;
57667;SDS011;43499;52.366;12.912;2024-01-11T04:33:42;10.48;;;4.53;;
57667;SDS011;43499;52.366;12.912;2024-01-11T04:34:43;9.20;;;4.10;;
57667;SDS011;43499;52.366;12.912;2024-01-11T04:35:44;7.65;;;4.05;;
57667;SDS011;43499;52.366;12.912;2024-01-11T04:36:45;8.18;;;4.25;;
57667;SDS011;43499;52.366;12.912;2024-01-11T04:37:46;7.53;;;2.88;;
57667;SDS011;43499;52.366;12.912;2024-01-11T04:38:47;8.82;;;3.60;;
57667;SDS011;43499;52.366;12.912;2024-01-11T04:39:48;8.43;;;4.07;;
57667;SDS011;43499;52.366;12.912;2024-01-11T04:40:49;9.65;;;3.72;;
57667;SDS011;43499;52.366;12.912;2024-01-11T04:41:50;10.52;;;3.85;;
57667;SDS011;43499;52.366;12.912;2024-01-11T04:42:51;7.47;;;3.42;;
57667;SDS011;43499;52.366;12.912;2024-01-11T04:43:52;9.40;;;3.28;;
57667;SDS011;43499;52.366;12.912;2024-01-11T04:44:53;10.00;;;3.65;;
57667;SDS011;43499;52.366;12.912;2024-01-11T04:45:55;9.52;;;3.78;;
57667;SDS011;43499;52.366;12.912;2024-01-11T04:46:56;7.47;;;3.65;;
57667;SDS011;43499;52.366;12.912;2024-01-11T04:47:57;7.90;;;4.20;;
57667;SDS011;43499;52.366;12.912;2024-01-11T04:48:58;8.38;;;4.05;;
57667;SDS011;43499;52.366;12.912;2024-01-11T04:49:59;9.85;;;3.60;;
57667;SDS011;43499;52.366;12.912;2024-01-11T04:51:00;10.25;;;4.07;;
57667;SDS011;43499;52.366;12.912;2024-01-11T04:52:01;8.10;;;3.97;;
57667;SDS011;43499;52.366;12.912;2024-01-11T04:53:02;7.72;;;4.07;;
57667;SDS011;43499;52.366;12.912;2024-01-11T04:54:03;12.13;;;3.92;;
57667;SDS011;43499;52.366;12.912;2024-01-11T04:55:04;8.05;;;4.18;;
57667;SDS011;43499;52.366;12.912;2024-01-11T04:56:09;8.73;;;3.47;;
57667;SDS011;43499;52.366;12.912;2024-01-11T04:57:10;8.70;;;3.53;;
57667;SDS011;43499;52.366;12.912;2024-01-11T04:58:12;9.38;;;4.13;;
57667;SDS011;43499;52.366;12.912;2024-01-11T04:59:13;8.70;;;3.75;;
57667;SDS011;43499;52.366;12.912;2024-01-11T05:00:14;11.50;;;3.92;;
57667;SDS011;43499;52.366;12.912;2024-01-11T05:01:16;9.48;;;4.55;;
57667;SDS011;43499;52.366;12.912;2024-01-11T05:02:20;10.18;;;3.70;;
57667;SDS011;43499;52.366;12.912;2024-01-11T05:03:21;7.22;;;3.38;;
57667;SDS011;43499;52.366;12.912;2024-01-11T05:04:22;12.00;;;4.07;;
57667;SDS011;43499;52.366;12.912;2024-01-11T05:05:23;12.18;;;4.78;;
57667;SDS011;43499;52.366;12.912;2024-01-11T05:06:24;10.23;;;4.03;;
57667;SDS011;43499;52.366;12.912;2024-01-11T05:07:26;13.25;;;4.70;;
57667;SDS011;43499;52.366;12.912;2024-01-11T05:08:28;10.18;;;4.30;;
57667;SDS011;43499;52.366;12.912;2024-01-11T05:09:29;9.52;;;4.80;;
57667;SDS011;43499;52.366;12.912;2024-01-11T05:10:30;12.27;;;5.00;;
57667;SDS011;43499;52.366;12.912;2024-01-11T05:11:31;13.48;;;5.10;;
57667;SDS011;43499;52.366;12.912;2024-01-11T05:12:32;11.70;;;3.55;;
57667;SDS011;43499;52.366;12.912;2024-01-11T05:13:33;8.88;;;4.28;;
57667;SDS011;43499;52.366;12.912;2024-01-11T05:14:34;13.15;;;4.68;;
57667;SDS011;43499;52.366;12.912;2024-01-11T05:15:35;12.75;;;3.92;;
57667;SDS011;43499;52.366;12.912;2024-01-11T05:16:37;9.55;;;4.32;;
57667;SDS011;43499;52.366;12.912;2024-01-11T05:17:38;11.32;;;5.05;;
57667;SDS011;43499;52.366;12.912;2024-01-11T05:18:39;7.18;;;3.13;;
57667;SDS011;43499;52.366;12.912;2024-01-11T05:19:40;12.52;;;4.40;;
57667;SDS011;43499;52.366;12.912;2024-01-11T05:20:41;9.48;;;3.75;;
57667;SDS011;43499;52.366;12.912;2024-01-11T05:21:42;11.82;;;4.65;;
57667;SDS011;43499;52.366;12.912;2024-01-11T05:22:43;15.18;;;4.35;;
57667;SDS011;43499;52.366;12.912;2024-01-11T05:23:44;11.00;;;4.80;;
57667;SDS011;43499;52.366;12.912;2024-01-11T05:24:45;6.43;;;2.75;;
57667;SDS011;43499;52.366;12.912;2024-01-11T05:25:46;8.88;;;4.10;;
57667;SDS011;43499;52.366;12.912;2024-01-11T05:26:48;13.10;;;5.00;;
57667;SDS011;43499;52.366;12.912;2024-01-11T05:27:49;10.10;;;4.32;;
57667;SDS011;43499;52.366;12.912;2024-01-11T05:28:50;12.52;;;3.85;;
57667;SDS011;43499;52.366;12.912;2024-01-11T05:29:51;10.80;;;3.72;;
57667;SDS011;43499;52.366;12.912;2024-01-11T05:30:52;14.93;;;4.45;;
57667;SDS011;43499;52.366;12.912;2024-01-11T05:31:53;7.93;;;3.97;;
57667;SDS011;43499;52.366;12.912;2024-01-11T05:32:55;18.27;;;4.97;;
57667;SDS011;43499;52.366;12.912;2024-01-11T05:33:56;6.88;;;3.05;;
57667;SDS011;43499;52.366;12.912;2024-01-11T05:34:57;14.93;;;4.07;;
57667;SDS011;43499;52.366;12.912;2024-01-11T05:35:58;12.38;;;5.15;;
57667;SDS011;43499;52.366;12.912;2024-01-11T05:36:59;10.88;;;4.43;;
57667;SDS011;43499;52.366;12.912;2024-01-11T05:38:00;8.57;;;3.50;;
57667;SDS011;43499;52.366;12.912;2024-01-11T05:39:01;9.32;;;4.43;;
57667;SDS011;43499;52.366;12.912;2024-01-11T05:40:02;11.95;;;4.53;;
57667;SDS011;43499;52.366;12.912;2024-01-11T05:42:05;8.50;;;4.32;;
57667;SDS011;43499;52.366;12.912;2024-01-11T05:44:07;10.60;;;3.97;;
57667;SDS011;43499;52.366;12.912;2024-01-11T05:45:08;5.63;;;2.00;;
57667;SDS011;43499;52.366;12.912;2024-01-11T05:46:09;10.32;;;4.55;;
57667;SDS011;43499;52.366;12.912;2024-01-11T05:47:10;10.75;;;4.82;;
57667;SDS011;43499;52.366;12.912;2024-01-11T05:48:11;8.27;;;3.47;;
57667;SDS011;43499;52.366;12.912;2024-01-11T05:49:13;10.02;;;3.67;;
57667;SDS011;43499;52.366;12.912;2024-01-11T05:50:14;6.78;;;2.38;;
57667;SDS011;43499;52.366;12.912;2024-01-11T05:51:15;13.55;;;4.75;;
57667;SDS011;43499;52.366;12.912;2024-01-11T05:52:16;11.75;;;4.15;;
57667;SDS011;43499;52.366;12.912;2024-01-11T05:53:17;10.95;;;4.47;;
57667;SDS011;43499;52.366;12.912;2024-01-11T05:54:21;6.93;;;3.30;;
57667;SDS011;43499;52.366;12.912;2024-01-11T05:55:22;11.70;;;4.20;;
57667;SDS011;43499;52.366;12.912;2024-01-11T05:56:23;10.27;;;3.55;;
57667;SDS011;43499;52.366;12.912;2024-01-11T05:57:24;7.40;;;3.72;;
57667;SDS011;43499;52.366;12.912;2024-01-11T05:58:25;9.38;;;3.85;;
57667;SDS011;43499;52.366;12.912;2024-01-11T05:59:26;9.93;;;4.10;;
57667;SDS011;43499;52.366;12.912;2024-01-11T06:00:27;10.25;;;4.63;;
57667;SDS011;43499;52.366;12.912;2024-01-11T06:01:28;9.73;;;4.10;;
57667;SDS011;43499;52.366;12.912;2024-01-11T06:02:29;9.57;;;3.50;;
57667;SDS011;43499;52.366;12.912;2024-01-11T06:03:32;10.90;;;3.88;;
57667;SDS011;43499;52.366;12.912;2024-01-11T06:04:34;11.55;;;5.65;;
57667;SDS011;43499;52.366;12.912;2024-01-11T06:05:35;7.80;;;2.45;;